Time;durP1;ratioP1;P1;durP2;ratioP2;P2;SDS_P1;SDS_P2;PMS_P1;PMS_P2;Temp;Humidity;BMP_temperature;BMP_pressure;BME280_temperature;BME280_humidity;BME280_pressure;Samples;Min_cycle;Max_cycle;Signal;HPM_P1;HPM_P2
2024/01/01 06:02:05;;;;;;;8.20;2.30;;;;;;;;;;5186906;23;20507;-76
2024/01/01 06:04:31;;;;;;;3.10;2.00;;;;;;;;;;4954002;28;20420;-75
2024/01/01 06:06:57;;;;;;;12.43;3.27;;;;;;;;;;4953960;28;20405;-74
2024/01/01 06:09:23;;;;;;;4.07;2.40;;;;;;;;;;4954057;28;20411;-75
2024/01/01 06:11:49;;;;;;;4.03;2.53;;;;;;;;;;4955637;28;20551;-75
2024/01/01 06:14:15;;;;;;;6.63;2.10;;;;;;;;;;4956317;28;20420;-75
2024/01/01 06:16:43;;;;;;;5.30;1.97;;;;;;;;;;5030496;23;20595;-72
2024/01/01 06:19:10;;;;;;;6.63;2.80;;;;;;;;;;4974232;28;20487;-71
2024/01/01 06:21:35;;;;;;;7.13;2.33;;;;;;;;;;4973810;28;20396;-71
2024/01/01 06:24:01;;;;;;;6.37;3.00;;;;;;;;;;4973025;28;20961;-71
2024/01/01 06:26:27;;;;;;;5.30;2.67;;;;;;;;;;4973097;28;20507;-71
2024/01/01 06:28:53;;;;;;;4.77;2.00;;;;;;;;;;4972555;28;20498;-72
2024/01/01 06:31:19;;;;;;;5.27;2.90;;;;;;;;;;4972936;28;20400;-71
2024/01/01 06:33:45;;;;;;;3.17;2.20;;;;;;;;;;4987689;28;20479;-71
2024/01/01 06:36:11;;;;;;;4.80;2.20;;;;;;;;;;4987768;28;20487;-71
2024/01/01 06:38:37;;;;;;;14.60;2.20;;;;;;;;;;4973006;28;20783;-71
2024/01/01 06:41:04;;;;;;;11.33;2.13;;;;;;;;;;4973053;28;20922;-71
2024/01/01 06:43:30;;;;;;;6.07;1.90;;;;;;;;;;4973149;28;20810;-71
2024/01/01 06:45:56;;;;;;;10.10;2.77;;;;;;;;;;4972740;28;20943;-71
2024/01/01 06:48:22;;;;;;;5.70;3.07;;;;;;;;;;4973003;28;20754;-70
2024/01/01 06:50:48;;;;;;;5.00;2.37;;;;;;;;;;4972773;28;20427;-69
2024/01/01 06:53:14;;;;;;;7.60;2.03;;;;;;;;;;4972798;28;20591;-73
2024/01/01 06:55:40;;;;;;;6.17;2.23;;;;;;;;;;4965601;28;20818;-73
2024/01/01 06:58:06;;;;;;;5.57;2.43;;;;;;;;;;4968217;28;20424;-74
2024/01/01 07:00:32;;;;;;;4.40;2.20;;;;;;;;;;4964837;28;20502;-73
2024/01/01 07:02:58;;;;;;;6.00;1.87;;;;;;;;;;4972797;28;20458;-73
2024/01/01 07:05:24;;;;;;;6.23;2.03;;;;;;;;;;4972705;28;20416;-73
2024/01/01 07:07:51;;;;;;;8.80;2.63;;;;;;;;;;4972883;28;20930;-73
2024/01/01 07:10:17;;;;;;;4.70;2.17;;;;;;;;;;4972784;28;20420;-73
2024/01/01 07:12:43;;;;;;;12.73;2.00;;;;;;;;;;4973195;28;20617;-72
2024/01/01 07:15:09;;;;;;;10.57;3.00;;;;;;;;;;4972909;28;20468;-73
2024/01/01 07:17:35;;;;;;;19.57;3.67;;;;;;;;;;4972643;28;20538;-73
2024/01/01 07:20:00;;;;;;;5.63;2.77;;;;;;;;;;4972723;28;20826;-73
2024/01/01 07:22:26;;;;;;;2.93;1.83;;;;;;;;;;4972674;28;20828;-73
2024/01/01 07:24:52;;;;;;;2.60;1.97;;;;;;;;;;4972771;28;20922;-73
2024/01/01 07:27:18;;;;;;;6.37;2.77;;;;;;;;;;4972673;28;20538;-73
2024/01/01 07:29:44;;;;;;;5.47;2.23;;;;;;;;;;4972533;28;20416;-73
2024/01/01 07:32:10;;;;;;;4.97;2.10;;;;;;;;;;4972692;28;20463;-73
2024/01/01 07:34:36;;;;;;;6.63;3.00;;;;;;;;;;4972340;28;20410;-73
2024/01/01 07:37:04;;;;;;;5.83;2.40;;;;;;;;;;4972600;28;20428;-73
2024/01/01 07:39:30;;;;;;;5.60;2.40;;;;;;;;;;4972536;28;20408;-73
2024/01/01 07:41:56;;;;;;;6.77;1.80;;;;;;;;;;4973688;28;20427;-73
2024/01/01 07:44:22;;;;;;;4.30;1.70;;;;;;;;;;4975733;28;20427;-73
2024/01/01 07:46:48;;;;;;;3.33;2.10;;;;;;;;;;4974597;28;20522;-73
2024/01/01 07:49:15;;;;;;;6.73;2.00;;;;;;;;;;4974818;28;20451;-73
2024/01/01 07:51:41;;;;;;;4.93;1.93;;;;;;;;;;4975940;28;20470;-73
2024/01/01 07:54:07;;;;;;;3.03;2.13;;;;;;;;;;4975558;28;20416;-73
2024/01/01 07:56:33;;;;;;;6.20;2.27;;;;;;;;;;4974240;28;20509;-73
2024/01/01 07:58:58;;;;;;;6.90;1.97;;;;;;;;;;4975799;28;20423;-73
2024/01/01 08:01:25;;;;;;;7.83;1.80;;;;;;;;;;4975925;28;20502;-73
2024/01/01 08:03:51;;;;;;;8.60;2.37;;;;;;;;;;4975495;28;20408;-73
2024/01/01 08:06:21;;;;;;;2.93;1.80;;;;;;;;;;4975676;28;20439;-73
2024/01/01 08:08:46;;;;;;;4.60;2.03;;;;;;;;;;4975624;28;20408;-73
2024/01/01 08:11:13;;;;;;;8.40;3.00;;;;;;;;;;4975588;28;20419;-73
2024/01/01 08:13:39;;;;;;;5.17;2.53;;;;;;;;;;4975299;28;20550;-73
2024/01/01 08:16:05;;;;;;;5.80;2.20;;;;;;;;;;4975465;28;20993;-73
2024/01/01 08:18:31;;;;;;;6.30;1.97;;;;;;;;;;4974106;28;20456;-73
2024/01/01 08:20:57;;;;;;;13.17;2.03;;;;;;;;;;4975420;28;20443;-73
2024/01/01 08:23:23;;;;;;;5.90;2.40;;;;;;;;;;4975122;28;20408;-73
2024/01/01 08:25:49;;;;;;;7.30;1.70;;;;;;;;;;4975172;28;20582;-73
2024/01/01 08:28:15;;;;;;;13.77;2.20;;;;;;;;;;4975396;28;20413;-73
2024/01/01 08:30:43;;;;;;;5.20;2.20;;;;;;;;;;4975299;28;20423;-73
2024/01/01 08:33:09;;;;;;;9.63;2.30;;;;;;;;;;4974971;28;20562;-73
2024/01/01 08:35:35;;;;;;;4.17;1.80;;;;;;;;;;4975030;28;20490;-74
2024/01/01 08:38:01;;;;;;;4.07;1.90;;;;;;;;;;4975205;28;20412;-74
2024/01/01 08:40:27;;;;;;;5.53;2.10;;;;;;;;;;4974826;28;20552;-73
2024/01/01 08:42:53;;;;;;;7.20;2.97;;;;;;;;;;4974823;28;20423;-74
2024/01/01 08:45:19;;;;;;;4.70;2.23;;;;;;;;;;4974892;28;20791;-73
2024/01/01 08:47:46;;;;;;;5.87;2.07;;;;;;;;;;4974851;28;20424;-73
2024/01/01 08:50:12;;;;;;;3.63;1.80;;;;;;;;;;4974695;28;20412;-73
2024/01/01 08:52:38;;;;;;;7.63;2.00;;;;;;;;;;4973974;28;20499;-72
2024/01/01 08:55:05;;;;;;;11.83;2.47;;;;;;;;;;4974687;28;20436;-72
2024/01/01 08:57:31;;;;;;;5.40;2.23;;;;;;;;;;4973038;28;20439;-72
2024/01/01 08:59:56;;;;;;;7.27;2.83;;;;;;;;;;4974544;28;20427;-69
2024/01/01 09:02:22;;;;;;;3.97;1.87;;;;;;;;;;4974702;28;20425;-69
2024/01/01 09:04:48;;;;;;;12.87;2.27;;;;;;;;;;4974517;28;20455;-73
2024/01/01 09:07:14;;;;;;;6.80;2.23;;;;;;;;;;4970296;28;20455;-73
2024/01/01 09:09:40;;;;;;;7.13;3.17;;;;;;;;;;4972918;28;20447;-73
2024/01/01 09:12:06;;;;;;;6.67;2.00;;;;;;;;;;4974744;28;20467;-73
2024/01/01 09:14:34;;;;;;;4.40;1.70;;;;;;;;;;4974370;28;20431;-73
2024/01/01 09:17:00;;;;;;;5.57;2.00;;;;;;;;;;4975482;28;20461;-73
2024/01/01 09:19:26;;;;;;;6.00;2.10;;;;;;;;;;4974478;28;20447;-73
2024/01/01 09:21:52;;;;;;;3.20;2.07;;;;;;;;;;4974605;28;20912;-73
2024/01/01 09:24:18;;;;;;;4.27;1.97;;;;;;;;;;4973555;28;20499;-73
2024/01/01 09:26:44;;;;;;;6.60;2.20;;;;;;;;;;4974008;28;20434;-72
2024/01/01 09:29:10;;;;;;;6.00;2.20;;;;;;;;;;4972552;28;21177;-70
2024/01/01 09:31:36;;;;;;;7.77;1.63;;;;;;;;;;4967475;28;20409;-73
2024/01/01 09:34:03;;;;;;;7.53;2.57;;;;;;;;;;4975299;28;20408;-73
2024/01/01 09:36:30;;;;;;;5.80;1.70;;;;;;;;;;4975861;28;20428;-74
2024/01/01 09:38:56;;;;;;;3.03;1.60;;;;;;;;;;4973163;28;20428;-73
2024/01/01 09:41:26;;;;;;;6.50;1.67;;;;;;;;;;4976001;28;20508;-73
2024/01/01 09:43:53;;;;;;;9.20;2.10;;;;;;;;;;4974882;28;20420;-74
2024/01/01 09:46:20;;;;;;;7.07;1.80;;;;;;;;;;4974853;28;20444;-73
2024/01/01 09:48:46;;;;;;;6.23;2.13;;;;;;;;;;4975024;28;20424;-73
2024/01/01 09:51:13;;;;;;;6.17;2.27;;;;;;;;;;4974480;28;20424;-73
2024/01/01 09:53:38;;;;;;;4.73;1.73;;;;;;;;;;4967391;28;20479;-73
2024/01/01 09:56:05;;;;;;;2.90;1.50;;;;;;;;;;4966325;28;20439;-73
2024/01/01 09:58:41;;;;;;;6.47;2.10;;;;;;;;;;4968600;28;21183;-73
2024/01/01 10:01:11;;;;;;;7.07;1.70;;;;;;;;;;4964861;28;20436;-74
2024/01/01 10:03:37;;;;;;;4.37;1.73;;;;;;;;;;4966046;28;20428;-74
2024/01/01 10:06:08;;;;;;;3.37;1.60;;;;;;;;;;4964823;28;20455;-74
2024/01/01 10:08:34;;;;;;;2.47;1.50;;;;;;;;;;4968205;28;20417;-73
2024/01/01 10:11:14;;;;;;;8.50;1.70;;;;;;;;;;4965256;28;20408;-74
2024/01/01 10:13:40;;;;;;;5.20;1.60;;;;;;;;;;4967880;28;20466;-73
2024/01/01 10:16:07;;;;;;;6.73;1.70;;;;;;;;;;4975656;28;20443;-72
2024/01/01 10:18:33;;;;;;;10.83;1.83;;;;;;;;;;4976387;28;20487;-72
2024/01/01 10:21:11;;;;;;;8.20;1.73;;;;;;;;;;4981830;28;20466;-72
2024/01/01 10:23:38;;;;;;;4.83;1.80;;;;;;;;;;4974484;28;20795;-72
2024/01/01 10:26:09;;;;;;;4.20;1.60;;;;;;;;;;4981308;28;20443;-71
2024/01/01 10:28:35;;;;;;;5.00;1.90;;;;;;;;;;4973942;28;20412;-72
2024/01/01 10:31:02;;;;;;;5.47;1.70;;;;;;;;;;4964555;28;20417;-73
2024/01/01 10:33:29;;;;;;;7.40;2.13;;;;;;;;;;4952786;28;21123;-73
2024/01/01 10:35:57;;;;;;;4.07;1.37;;;;;;;;;;4952878;28;20435;-73
2024/01/01 10:38:23;;;;;;;5.30;1.70;;;;;;;;;;4953086;28;20843;-73
2024/01/01 10:40:51;;;;;;;4.60;1.60;;;;;;;;;;4953433;28;20405;-73
2024/01/01 10:43:18;;;;;;;2.93;1.43;;;;;;;;;;4953221;28;20823;-73
2024/01/01 10:45:45;;;;;;;2.50;1.53;;;;;;;;;;4953876;28;20440;-73
2024/01/01 10:48:13;;;;;;;2.00;1.67;;;;;;;;;;4953881;28;20420;-73
2024/01/01 10:50:56;;;;;;;8.53;2.17;;;;;;;;;;4953627;28;20416;-73
2024/01/01 10:53:34;;;;;;;2.77;1.57;;;;;;;;;;4953720;28;20464;-73
2024/01/01 10:56:00;;;;;;;5.10;2.00;;;;;;;;;;4954104;28;20425;-73
2024/01/01 10:58:35;;;;;;;11.63;2.40;;;;;;;;;;4966800;28;20424;-73
2024/01/01 11:01:11;;;;;;;3.00;1.90;;;;;;;;;;4968199;28;20447;-75
2024/01/01 11:03:38;;;;;;;6.60;2.43;;;;;;;;;;4970043;28;20426;-75
2024/01/01 11:06:24;;;;;;;8.90;2.17;;;;;;;;;;4972320;28;20884;-74
2024/01/01 11:08:50;;;;;;;9.67;2.63;;;;;;;;;;4972750;28;20475;-73
2024/01/01 11:11:22;;;;;;;11.90;2.03;;;;;;;;;;4972772;28;20422;-73
2024/01/01 11:13:48;;;;;;;10.70;2.73;;;;;;;;;;4957056;28;20470;-74
2024/01/01 11:16:14;;;;;;;4.63;2.23;;;;;;;;;;4972501;28;20460;-74
2024/01/01 11:18:43;;;;;;;5.93;2.27;;;;;;;;;;4971215;28;20485;-74
2024/01/01 11:21:09;;;;;;;3.40;2.17;;;;;;;;;;4968500;28;20422;-73
2024/01/01 11:23:35;;;;;;;9.13;2.37;;;;;;;;;;4969013;28;20506;-73
2024/01/01 11:26:01;;;;;;;4.00;2.10;;;;;;;;;;4975909;28;20443;-73
2024/01/01 11:28:39;;;;;;;8.47;2.00;;;;;;;;;;4971424;28;20424;-76
2024/01/01 11:31:05;;;;;;;9.77;2.40;;;;;;;;;;4976134;28;20474;-75
2024/01/01 11:33:31;;;;;;;9.53;2.40;;;;;;;;;;4975771;28;20463;-74
2024/01/01 11:36:10;;;;;;;12.77;2.27;;;;;;;;;;4975821;28;20438;-76
2024/01/01 11:38:39;;;;;;;6.90;1.77;;;;;;;;;;4975802;28;20853;-74
2024/01/01 11:41:05;;;;;;;8.63;2.20;;;;;;;;;;4976114;28;20479;-75
2024/01/01 11:43:32;;;;;;;10.13;2.00;;;;;;;;;;4974396;28;20473;-75
2024/01/01 11:45:58;;;;;;;11.00;2.40;;;;;;;;;;4968342;28;20776;-75
2024/01/01 11:48:24;;;;;;;7.10;2.03;;;;;;;;;;4961656;28;20451;-74
2024/01/01 11:50:53;;;;;;;12.27;2.20;;;;;;;;;;4956853;28;20495;-75
2024/01/01 11:53:19;;;;;;;9.27;2.43;;;;;;;;;;4955940;28;20468;-74
2024/01/01 11:55:45;;;;;;;6.50;3.07;;;;;;;;;;4956747;28;20524;-74
2024/01/01 11:58:12;;;;;;;9.77;2.77;;;;;;;;;;4956744;28;20405;-74
2024/01/01 12:00:37;;;;;;;8.13;2.30;;;;;;;;;;4956783;28;20464;-74
2024/01/01 12:03:07;;;;;;;12.90;3.60;;;;;;;;;;4956754;28;20425;-74
2024/01/01 12:05:33;;;;;;;8.43;3.50;;;;;;;;;;4956406;28;20460;-74
2024/01/01 12:08:00;;;;;;;4.90;3.07;;;;;;;;;;4956616;28;20947;-75
2024/01/01 12:10:28;;;;;;;11.77;2.53;;;;;;;;;;4956411;28;20409;-74
2024/01/01 12:13:02;;;;;;;22.57;3.27;;;;;;;;;;4956855;28;20535;-74
2024/01/01 12:15:31;;;;;;;13.57;5.07;;;;;;;;;;4956161;28;20508;-74
2024/01/01 12:17:57;;;;;;;11.73;2.63;;;;;;;;;;4956471;28;20821;-74
2024/01/01 12:20:23;;;;;;;9.57;3.40;;;;;;;;;;4955953;28;20424;-74
2024/01/01 12:22:49;;;;;;;8.63;2.57;;;;;;;;;;4955942;28;20924;-74
2024/01/01 12:25:16;;;;;;;11.43;3.87;;;;;;;;;;4955822;28;20444;-72
2024/01/01 12:27:43;;;;;;;7.43;2.43;;;;;;;;;;4955482;28;20417;-71
2024/01/01 12:30:09;;;;;;;8.07;2.93;;;;;;;;;;4955955;28;20416;-71
2024/01/01 12:32:35;;;;;;;13.30;2.70;;;;;;;;;;4970125;28;20488;-73
2024/01/01 12:35:01;;;;;;;5.63;2.00;;;;;;;;;;4968150;28;20415;-75
2024/01/01 12:37:29;;;;;;;5.07;2.23;;;;;;;;;;4974838;28;20490;-74
2024/01/01 12:39:55;;;;;;;4.30;1.90;;;;;;;;;;4974938;28;20762;-75
2024/01/01 12:42:21;;;;;;;4.73;2.27;;;;;;;;;;4974796;28;20456;-74
2024/01/01 12:44:47;;;;;;;5.03;1.80;;;;;;;;;;4974599;28;20456;-74
2024/01/01 12:47:14;;;;;;;5.00;1.73;;;;;;;;;;4974514;28;20523;-74
2024/01/01 12:49:40;;;;;;;11.63;2.27;;;;;;;;;;4974593;28;20419;-73
2024/01/01 12:52:06;;;;;;;5.60;2.53;;;;;;;;;;4974659;28;20459;-73
2024/01/01 12:54:32;;;;;;;8.47;1.90;;;;;;;;;;4974181;28;20494;-74
2024/01/01 12:56:58;;;;;;;8.77;2.83;;;;;;;;;;4972206;28;20440;-75
2024/01/01 12:59:24;;;;;;;16.27;2.50;;;;;;;;;;4974597;28;20970;-74
2024/01/01 13:01:50;;;;;;;7.27;1.97;;;;;;;;;;4974459;28;20424;-74
2024/01/01 13:04:16;;;;;;;8.63;2.00;;;;;;;;;;4974052;28;20428;-74
2024/01/01 13:06:42;;;;;;;6.67;2.50;;;;;;;;;;4974112;28;20434;-74
2024/01/01 13:09:08;;;;;;;7.83;2.03;;;;;;;;;;4973871;28;20415;-74
2024/01/01 13:11:34;;;;;;;7.03;2.10;;;;;;;;;;4965452;28;20422;-75
2024/01/01 13:14:00;;;;;;;9.47;2.37;;;;;;;;;;4965075;28;20460;-75
2024/01/01 13:16:26;;;;;;;7.00;2.37;;;;;;;;;;4965431;28;20800;-75
2024/01/01 13:18:52;;;;;;;11.53;2.40;;;;;;;;;;4966972;28;20913;-74
2024/01/01 13:21:19;;;;;;;13.63;3.37;;;;;;;;;;4965415;28;20417;-75
2024/01/01 13:23:45;;;;;;;6.90;2.40;;;;;;;;;;4968609;28;20431;-75
2024/01/01 13:26:11;;;;;;;9.20;2.23;;;;;;;;;;4973783;28;20439;-74
2024/01/01 13:28:37;;;;;;;6.77;2.40;;;;;;;;;;4979705;28;20518;-75
2024/01/01 13:31:03;;;;;;;9.30;2.20;;;;;;;;;;4973885;28;20575;-74
2024/01/01 13:33:29;;;;;;;10.90;2.17;;;;;;;;;;4973391;28;20832;-74
2024/01/01 13:35:55;;;;;;;12.33;3.47;;;;;;;;;;4972493;28;20432;-75
2024/01/01 13:38:21;;;;;;;7.73;2.30;;;;;;;;;;4973681;28;20429;-74
2024/01/01 13:40:47;;;;;;;7.43;3.10;;;;;;;;;;4974152;28;20903;-74
2024/01/01 13:43:14;;;;;;;10.73;2.23;;;;;;;;;;4973923;28;20966;-75
2024/01/01 13:45:41;;;;;;;8.23;2.50;;;;;;;;;;4968181;28;20505;-75
2024/01/01 13:48:10;;;;;;;8.27;2.60;;;;;;;;;;4965167;28;20459;-75
2024/01/01 13:50:37;;;;;;;11.57;2.33;;;;;;;;;;4963973;28;20420;-75
2024/01/01 13:53:04;;;;;;;5.80;1.93;;;;;;;;;;4964638;28;20469;-75
2024/01/01 13:55:30;;;;;;;6.43;2.10;;;;;;;;;;4964757;28;20412;-72
2024/01/01 13:57:56;;;;;;;7.93;2.67;;;;;;;;;;4963206;28;20412;-71
2024/01/01 14:00:24;;;;;;;14.93;2.93;;;;;;;;;;4954191;28;20420;-71
2024/01/01 14:02:50;;;;;;;12.60;3.60;;;;;;;;;;4956501;28;20785;-71
2024/01/01 14:05:16;;;;;;;12.50;2.30;;;;;;;;;;4971126;28;20428;-75
2024/01/01 14:07:45;;;;;;;6.97;2.23;;;;;;;;;;4985073;28;20423;-75
2024/01/01 14:10:11;;;;;;;18.90;3.40;;;;;;;;;;4983322;28;20415;-72
2024/01/01 14:12:37;;;;;;;11.50;3.20;;;;;;;;;;4959904;28;20832;-72
2024/01/01 14:15:03;;;;;;;11.33;2.67;;;;;;;;;;4962977;28;20443;-71
2024/01/01 14:17:29;;;;;;;12.40;3.00;;;;;;;;;;4972828;28;20443;-73
2024/01/01 14:19:55;;;;;;;7.63;2.50;;;;;;;;;;4973265;28;20971;-73
2024/01/01 14:22:21;;;;;;;13.87;2.60;;;;;;;;;;4973223;28;20794;-73
2024/01/01 14:24:47;;;;;;;9.43;2.30;;;;;;;;;;4969728;28;20416;-73
2024/01/01 14:27:13;;;;;;;6.20;2.20;;;;;;;;;;4962092;28;20784;-73
2024/01/01 14:29:39;;;;;;;8.07;2.73;;;;;;;;;;4962980;28;20412;-73
2024/01/01 14:32:05;;;;;;;6.70;2.37;;;;;;;;;;4960434;28;20463;-72
2024/01/01 14:34:35;;;;;;;10.40;2.43;;;;;;;;;;4956391;28;20413;-72
2024/01/01 14:37:03;;;;;;;8.43;2.23;;;;;;;;;;4964177;28;20536;-75
2024/01/01 14:39:29;;;;;;;6.10;2.40;;;;;;;;;;4968041;28;20472;-72
2024/01/01 14:41:55;;;;;;;8.93;2.50;;;;;;;;;;4980019;28;20459;-72
2024/01/01 14:44:21;;;;;;;10.07;2.60;;;;;;;;;;4972586;28;20499;-72
2024/01/01 14:46:50;;;;;;;11.13;2.60;;;;;;;;;;4973130;28;20428;-72
2024/01/01 14:49:16;;;;;;;5.97;2.40;;;;;;;;;;4982055;28;20424;-71
2024/01/01 14:51:43;;;;;;;6.30;1.90;;;;;;;;;;4977598;28;20563;-72
2024/01/01 14:54:09;;;;;;;6.67;2.03;;;;;;;;;;4978026;28;20431;-72
2024/01/01 14:56:39;;;;;;;9.27;2.57;;;;;;;;;;4977663;28;20443;-72
2024/01/01 14:59:05;;;;;;;7.13;2.20;;;;;;;;;;4977307;28;20491;-73
2024/01/01 15:01:31;;;;;;;12.30;2.40;;;;;;;;;;4976400;28;20511;-73
2024/01/01 15:03:57;;;;;;;7.13;2.07;;;;;;;;;;4977191;28;20408;-73
2024/01/01 15:06:23;;;;;;;12.00;3.60;;;;;;;;;;4976715;28;20432;-76
2024/01/01 15:08:49;;;;;;;7.83;2.23;;;;;;;;;;4977141;28;20436;-76
2024/01/01 15:11:14;;;;;;;13.03;3.27;;;;;;;;;;4977152;28;20412;-76
2024/01/01 15:13:40;;;;;;;13.17;3.40;;;;;;;;;;4977074;28;20471;-75
2024/01/01 15:16:06;;;;;;;5.23;2.40;;;;;;;;;;4976179;28;20551;-74
2024/01/01 15:18:32;;;;;;;4.40;2.30;;;;;;;;;;4976750;28;20419;-74
2024/01/01 15:20:58;;;;;;;16.17;3.83;;;;;;;;;;4976386;28;20413;-74
2024/01/01 15:23:24;;;;;;;7.03;2.10;;;;;;;;;;4976511;28;20938;-75
2024/01/01 15:25:50;;;;;;;8.50;2.63;;;;;;;;;;4975408;28;20451;-76
2024/01/01 15:28:16;;;;;;;11.50;2.07;;;;;;;;;;4976104;28;20427;-75
2024/01/01 15:30:42;;;;;;;3.17;1.87;;;;;;;;;;4976102;28;20503;-75
2024/01/01 15:33:08;;;;;;;12.40;2.40;;;;;;;;;;4976111;28;20474;-75
2024/01/01 15:35:34;;;;;;;6.20;2.80;;;;;;;;;;4976039;28;20437;-75
2024/01/01 15:38:00;;;;;;;4.63;2.27;;;;;;;;;;4976263;28;20412;-76
2024/01/01 15:40:26;;;;;;;15.63;3.60;;;;;;;;;;4976060;28;20410;-75
2024/01/01 15:42:55;;;;;;;9.23;3.00;;;;;;;;;;4956715;28;20908;-75
2024/01/01 15:45:21;;;;;;;6.20;2.50;;;;;;;;;;4972045;28;20415;-75
2024/01/01 15:47:47;;;;;;;7.47;2.40;;;;;;;;;;4975844;28;20474;-75
2024/01/01 15:50:13;;;;;;;6.17;2.97;;;;;;;;;;4975667;28;20899;-75
2024/01/01 15:52:39;;;;;;;4.70;2.47;;;;;;;;;;4975556;28;20562;-75
2024/01/01 15:55:08;;;;;;;12.80;3.50;;;;;;;;;;4975477;28;20503;-75
2024/01/01 15:57:34;;;;;;;9.10;2.80;;;;;;;;;;4972885;28;20864;-72
2024/01/01 16:00:00;;;;;;;12.10;3.50;;;;;;;;;;4968813;28;20408;-72
2024/01/01 16:02:27;;;;;;;15.10;3.73;;;;;;;;;;4966101;28;20428;-72
2024/01/01 16:04:54;;;;;;;15.83;4.20;;;;;;;;;;4974420;28;20423;-72
2024/01/01 16:07:20;;;;;;;23.43;5.83;;;;;;;;;;4974935;28;20444;-72
2024/01/01 16:09:46;;;;;;;16.43;5.90;;;;;;;;;;4970379;28;20776;-73
2024/01/01 16:12:12;;;;;;;20.03;6.57;;;;;;;;;;4965589;28;20563;-73
2024/01/01 16:14:38;;;;;;;12.63;4.90;;;;;;;;;;4974173;28;20431;-73
2024/01/01 16:17:06;;;;;;;20.00;6.30;;;;;;;;;;4969649;28;20494;-74
2024/01/01 16:19:32;;;;;;;11.77;6.30;;;;;;;;;;4974355;28;20416;-73
2024/01/01 16:21:58;;;;;;;12.40;3.93;;;;;;;;;;4961339;28;20505;-73
2024/01/01 16:24:24;;;;;;;11.07;5.20;;;;;;;;;;4968753;28;20472;-73
2024/01/01 16:26:50;;;;;;;24.23;4.10;;;;;;;;;;4964425;28;20444;-75
2024/01/01 16:29:17;;;;;;;7.10;2.60;;;;;;;;;;4961121;28;20423;-74
2024/01/01 16:31:43;;;;;;;11.77;3.50;;;;;;;;;;4977163;28;20432;-77
2024/01/01 16:34:09;;;;;;;10.23;3.27;;;;;;;;;;4975416;28;20490;-79
2024/01/01 16:36:35;;;;;;;10.53;2.93;;;;;;;;;;4978253;28;20451;-76
2024/01/01 16:39:05;;;;;;;12.57;3.20;;;;;;;;;;4973167;28;20423;-75
2024/01/01 16:41:30;;;;;;;11.83;3.07;;;;;;;;;;4967894;28;20464;-75
2024/01/01 16:43:58;;;;;;;27.17;6.23;;;;;;;;;;4963812;28;20439;-74
2024/01/01 16:46:24;;;;;;;27.90;6.90;;;;;;;;;;4975261;28;20447;-74
2024/01/01 16:48:50;;;;;;;17.77;6.37;;;;;;;;;;4974089;28;20428;-75
2024/01/01 16:51:16;;;;;;;13.80;4.57;;;;;;;;;;4974249;28;20428;-73
2024/01/01 16:53:42;;;;;;;17.10;5.03;;;;;;;;;;4966571;28;20503;-75
2024/01/01 16:56:09;;;;;;;20.13;5.10;;;;;;;;;;4972495;28;20474;-74
2024/01/01 16:58:34;;;;;;;26.43;8.40;;;;;;;;;;4972562;28;20447;-77
2024/01/01 17:01:00;;;;;;;41.37;16.07;;;;;;;;;;4973579;28;20468;-76
2024/01/01 17:03:26;;;;;;;15.33;4.80;;;;;;;;;;4969321;28;20416;-75
2024/01/01 17:05:53;;;;;;;21.57;5.93;;;;;;;;;;4965202;28;20436;-78
2024/01/01 17:08:20;;;;;;;15.77;8.33;;;;;;;;;;4967306;28;20416;-78
2024/01/01 17:10:46;;;;;;;17.27;6.33;;;;;;;;;;4968856;28;20421;-77
2024/01/01 17:13:12;;;;;;;6.17;3.87;;;;;;;;;;4966083;28;20460;-77
2024/01/01 17:15:39;;;;;;;21.53;6.10;;;;;;;;;;4969751;28;20432;-76
2024/01/01 17:18:06;;;;;;;25.87;8.43;;;;;;;;;;4965300;28;20433;-73
2024/01/01 17:20:32;;;;;;;28.47;7.60;;;;;;;;;;4974116;28;20495;-74
2024/01/01 17:22:58;;;;;;;15.70;5.00;;;;;;;;;;4974164;28;20412;-76
2024/01/01 17:25:24;;;;;;;8.77;3.37;;;;;;;;;;4974383;28;20408;-76
2024/01/01 17:27:50;;;;;;;13.83;3.40;;;;;;;;;;4975486;28;20411;-76
2024/01/01 17:30:16;;;;;;;15.47;3.93;;;;;;;;;;4974619;28;20412;-73
2024/01/01 17:32:42;;;;;;;8.80;4.07;;;;;;;;;;4970375;28;20466;-75
2024/01/01 17:35:08;;;;;;;14.07;3.33;;;;;;;;;;4971040;28;20419;-74
2024/01/01 17:37:34;;;;;;;7.17;3.30;;;;;;;;;;4974095;28;20432;-74
2024/01/01 17:40:00;;;;;;;14.40;4.07;;;;;;;;;;4973447;28;20852;-73
2024/01/01 17:42:27;;;;;;;7.20;3.40;;;;;;;;;;4973704;28;20416;-73
2024/01/01 17:44:53;;;;;;;7.63;2.90;;;;;;;;;;4970323;28;20419;-74
2024/01/01 17:47:19;;;;;;;11.90;3.37;;;;;;;;;;4967336;28;20443;-74
2024/01/01 17:49:46;;;;;;;6.70;3.40;;;;;;;;;;4963991;28;20468;-74
2024/01/01 17:52:12;;;;;;;12.17;4.67;;;;;;;;;;4962191;28;20471;-75
2024/01/01 17:54:41;;;;;;;10.30;3.33;;;;;;;;;;4965277;28;20499;-75
2024/01/01 17:57:07;;;;;;;15.20;5.07;;;;;;;;;;4964213;28;20445;-75
2024/01/01 17:59:33;;;;;;;15.40;4.20;;;;;;;;;;4966569;28;20417;-75
2024/01/01 18:01:59;;;;;;;13.57;3.47;;;;;;;;;;4968767;28;20417;-76
2024/01/01 18:04:25;;;;;;;5.83;2.57;;;;;;;;;;4968652;28;20912;-75
2024/01/01 18:06:51;;;;;;;6.10;2.87;;;;;;;;;;4980395;28;20444;-75
2024/01/01 18:09:17;;;;;;;11.27;3.20;;;;;;;;;;4966453;28;20771;-73
2024/01/01 18:11:43;;;;;;;6.43;2.93;;;;;;;;;;4966239;28;20419;-73
2024/01/01 18:14:09;;;;;;;10.53;3.50;;;;;;;;;;4974682;28;20463;-74
2024/01/01 18:16:37;;;;;;;11.03;3.63;;;;;;;;;;4974940;28;20471;-74
2024/01/01 18:19:03;;;;;;;28.73;3.37;;;;;;;;;;4974181;28;20423;-76
2024/01/01 18:21:29;;;;;;;8.57;3.20;;;;;;;;;;4973402;28;20888;-73
2024/01/01 18:23:55;;;;;;;7.97;3.50;;;;;;;;;;4972719;28;20420;-77
2024/01/01 18:26:21;;;;;;;10.10;4.53;;;;;;;;;;4990631;28;20444;-74
2024/01/01 18:28:47;;;;;;;17.00;7.37;;;;;;;;;;4974954;28;20423;-76
2024/01/01 18:31:18;;;;;;;16.43;6.63;;;;;;;;;;4974386;28;20420;-73
2024/01/01 18:33:44;;;;;;;21.23;6.07;;;;;;;;;;4974228;28;20460;-73
2024/01/01 18:36:11;;;;;;;9.13;3.40;;;;;;;;;;4973755;28;20483;-75
2024/01/01 18:38:38;;;;;;;10.00;3.63;;;;;;;;;;4974966;28;20415;-75
2024/01/01 18:41:07;;;;;;;11.63;3.00;;;;;;;;;;4974885;28;20470;-75
2024/01/01 18:43:33;;;;;;;17.87;4.33;;;;;;;;;;4973513;28;20494;-71
2024/01/01 18:45:59;;;;;;;7.23;3.47;;;;;;;;;;4973116;28;20560;-71
2024/01/01 18:48:25;;;;;;;11.97;3.10;;;;;;;;;;4970517;28;20975;-73
2024/01/01 18:50:53;;;;;;;16.37;4.53;;;;;;;;;;4971363;28;20428;-74
2024/01/01 18:53:19;;;;;;;19.67;4.77;;;;;;;;;;4969987;28;20891;-72
2024/01/01 18:55:45;;;;;;;16.53;6.40;;;;;;;;;;4973130;28;20792;-73
2024/01/01 18:58:11;;;;;;;15.27;4.93;;;;;;;;;;4973357;28;20423;-73
2024/01/01 19:00:37;;;;;;;32.63;5.43;;;;;;;;;;4963917;28;20826;-72
2024/01/01 19:03:04;;;;;;;10.67;3.70;;;;;;;;;;4966586;28;20452;-74
2024/01/01 19:05:31;;;;;;;14.10;4.07;;;;;;;;;;4971824;28;20420;-74
2024/01/01 19:07:58;;;;;;;9.97;3.77;;;;;;;;;;4980252;28;20424;-73
2024/01/01 19:10:26;;;;;;;13.50;4.77;;;;;;;;;;4981394;28;20445;-74
2024/01/01 19:12:53;;;;;;;15.70;6.70;;;;;;;;;;4977982;28;20455;-74
2024/01/01 19:15:19;;;;;;;26.37;5.73;;;;;;;;;;4978589;28;20660;-75
2024/01/01 19:17:45;;;;;;;11.03;4.13;;;;;;;;;;4980632;28;20424;-75
2024/01/01 19:20:11;;;;;;;11.30;3.87;;;;;;;;;;4978336;28;20514;-73
2024/01/01 19:22:37;;;;;;;9.73;3.10;;;;;;;;;;4974767;28;20456;-74
2024/01/01 19:25:03;;;;;;;9.10;3.27;;;;;;;;;;4981975;28;20440;-75
2024/01/01 19:27:31;;;;;;;11.77;3.80;;;;;;;;;;4981598;28;20506;-73
2024/01/01 19:29:58;;;;;;;5.73;2.70;;;;;;;;;;4981385;28;20446;-73
2024/01/01 19:32:26;;;;;;;15.73;3.80;;;;;;;;;;4975515;28;20470;-72
2024/01/01 19:34:57;;;;;;;13.83;3.10;;;;;;;;;;4977433;28;20416;-72
2024/01/01 19:37:24;;;;;;;11.13;3.10;;;;;;;;;;4984817;28;20434;-74
2024/01/01 19:39:51;;;;;;;6.23;3.10;;;;;;;;;;4983390;28;20774;-74
2024/01/01 19:42:18;;;;;;;7.70;2.60;;;;;;;;;;4984112;28;20423;-74
2024/01/01 19:44:44;;;;;;;8.50;2.43;;;;;;;;;;4979174;28;20416;-74
2024/01/01 19:47:10;;;;;;;12.70;3.17;;;;;;;;;;4977433;28;21010;-74
2024/01/01 19:49:40;;;;;;;10.53;2.73;;;;;;;;;;4976612;28;20420;-75
2024/01/01 19:52:06;;;;;;;10.10;2.70;;;;;;;;;;4976859;28;20466;-73
2024/01/01 19:54:32;;;;;;;9.90;3.23;;;;;;;;;;4976905;28;20756;-74
2024/01/01 19:56:58;;;;;;;7.30;2.83;;;;;;;;;;4977569;28;20511;-73
2024/01/01 19:59:24;;;;;;;9.90;3.73;;;;;;;;;;4977807;28;20424;-74
2024/01/01 20:01:51;;;;;;;12.17;5.03;;;;;;;;;;4978249;28;20486;-78
2024/01/01 20:04:17;;;;;;;15.93;3.60;;;;;;;;;;4978516;28;20443;-76
2024/01/01 20:06:43;;;;;;;7.60;3.30;;;;;;;;;;4990067;28;20498;-76
2024/01/01 20:09:10;;;;;;;11.53;4.93;;;;;;;;;;4961498;28;20932;-75
2024/01/01 20:11:36;;;;;;;10.13;3.17;;;;;;;;;;4976556;28;20915;-75
2024/01/01 20:14:07;;;;;;;15.00;4.40;;;;;;;;;;4978088;28;20487;-75
2024/01/01 20:16:36;;;;;;;5.30;2.73;;;;;;;;;;4976503;28;20459;-75
2024/01/01 20:19:02;;;;;;;16.40;3.50;;;;;;;;;;4992132;28;20412;-75
2024/01/01 20:21:33;;;;;;;6.00;2.90;;;;;;;;;;4975109;28;20424;-76
2024/01/01 20:23:59;;;;;;;10.83;3.27;;;;;;;;;;4975094;28;20787;-74
2024/01/01 20:26:26;;;;;;;7.07;3.20;;;;;;;;;;4982723;28;20578;-77
2024/01/01 20:28:56;;;;;;;6.30;2.93;;;;;;;;;;4975598;28;20417;-76
2024/01/01 20:31:26;;;;;;;8.23;3.63;;;;;;;;;;4978371;28;20424;-75
2024/01/01 20:33:53;;;;;;;13.90;3.50;;;;;;;;;;4957941;28;20467;-73
2024/01/01 20:36:24;;;;;;;10.63;3.53;;;;;;;;;;4975623;28;20432;-74